createdAt,value
2022-12-29T00:00:02.893Z,85.41
2022-12-29T00:03:02.173Z,85.61
2022-12-29T00:05:57.464Z,85.32
2022-12-29T00:08:46.890Z,85.22
2022-12-29T00:11:36.543Z,85.64
2022-12-29T00:14:44.713Z,85.42
2022-12-29T00:17:33.968Z,85.70
2022-12-29T00:20:40.267Z,86.51
2022-12-29T00:23:46.731Z,86.20
2022-12-29T00:26:53.686Z,86.18
2022-12-29T00:30:01.784Z,86.84
2022-12-29T00:33:07.958Z,86.75
2022-12-29T00:36:03.518Z,86.76
2022-12-29T00:39:14.441Z,86.67
2022-12-29T00:42:35.477Z,86.57
2022-12-29T00:45:28.146Z,86.60
2022-12-29T00:48:37.556Z,86.43
2022-12-29T00:51:25.899Z,86.00
2022-12-29T00:54:16.077Z,85.93
2022-12-29T00:57:11.581Z,85.84
2022-12-29T01:00:01.080Z,85.76
2022-12-29T01:02:52.626Z,85.91
2022-12-29T01:05:42.085Z,85.75
2022-12-29T01:08:31.547Z,85.42
2022-12-29T01:11:19.831Z,85.38
2022-12-29T01:14:09.666Z,85.35
2022-12-29T01:17:00.223Z,85.16
2022-12-29T01:19:50.829Z,85.08
2022-12-29T01:22:40.485Z,85.14
2022-12-29T01:25:29.777Z,85.17
2022-12-29T01:28:25.669Z,84.73
2022-12-29T01:31:17.613Z,85.04
2022-12-29T01:34:08.326Z,85.08
2022-12-29T01:36:58.993Z,84.90
2022-12-29T01:39:48.323Z,84.86
2022-12-29T01:42:37.690Z,84.97
2022-12-29T01:45:26.997Z,85.21
2022-12-29T01:48:17.327Z,85.19
2022-12-29T01:51:09.258Z,84.83
2022-12-29T01:54:04.980Z,84.82
2022-12-29T01:56:55.995Z,84.98
2022-12-29T01:59:52.559Z,84.72
2022-12-29T02:02:45.031Z,85.00
2022-12-29T02:05:40.853Z,84.67
2022-12-29T02:08:32.301Z,85.42
2022-12-29T02:11:24.504Z,85.07
2022-12-29T02:14:16.374Z,84.92
2022-12-29T02:17:17.994Z,84.77
2022-12-29T02:20:55.591Z,84.48
2022-12-29T02:24:28.848Z,84.60
2022-12-29T02:27:52.602Z,84.38
2022-12-29T02:30:53.860Z,84.69
2022-12-29T02:34:03.000Z,84.48
2022-12-29T02:37:04.180Z,84.17
2022-12-29T02:40:08.267Z,83.39
2022-12-29T02:43:05.900Z,83.19
2022-12-29T02:46:02.697Z,82.90
2022-12-29T02:49:01.075Z,83.28
2022-12-29T02:51:58.231Z,82.87
2022-12-29T02:54:50.154Z,82.70
2022-12-29T02:57:39.539Z,82.77
2022-12-29T03:00:29.363Z,82.68
2022-12-29T03:03:30.890Z,81.98
2022-12-29T03:06:40.082Z,82.18
2022-12-29T03:09:44.182Z,82.05
2022-12-29T03:12:56.433Z,81.68
2022-12-29T03:16:03.356Z,81.60
2022-12-29T03:19:03.153Z,81.46
2022-12-29T03:22:16.663Z,81.23
2022-12-29T03:25:21.702Z,81.29
2022-12-29T03:28:14.610Z,81.02
2022-12-29T03:31:10.168Z,80.79
2022-12-29T03:34:05.263Z,81.42
2022-12-29T03:37:02.707Z,81.61
2022-12-29T03:39:52.289Z,81.39
2022-12-29T03:42:43.225Z,81.58
2022-12-29T03:45:32.542Z,82.33
2022-12-29T03:48:22.058Z,82.55
2022-12-29T03:51:14.622Z,82.31
2022-12-29T03:54:05.131Z,82.41
2022-12-29T03:56:55.415Z,82.90
2022-12-29T03:59:56.335Z,82.47
2022-12-29T04:02:45.857Z,83.09
2022-12-29T04:05:41.093Z,83.45
2022-12-29T04:08:32.199Z,83.06
2022-12-29T04:11:21.536Z,82.90
2022-12-29T04:14:11.954Z,82.74
2022-12-29T04:17:01.208Z,82.51
2022-12-29T04:19:52.157Z,82.02
2022-12-29T04:22:41.618Z,82.07
2022-12-29T04:25:33.288Z,82.11
2022-12-29T04:28:23.113Z,81.64
2022-12-29T04:31:44.914Z,81.43
2022-12-29T04:34:34.813Z,81.37
2022-12-29T04:37:24.109Z,80.99
2022-12-29T04:40:14.387Z,81.05
2022-12-29T04:43:05.635Z,80.79
2022-12-29T04:45:59.982Z,80.91
2022-12-29T04:48:55.427Z,80.86
2022-12-29T04:52:03.534Z,80.28
2022-12-29T04:54:53.181Z,80.16
2022-12-29T04:57:43.678Z,79.48
2022-12-29T05:00:38.476Z,79.35
2022-12-29T05:03:27.849Z,78.93
2022-12-29T05:06:17.621Z,78.43
2022-12-29T05:09:08.636Z,78.08
2022-12-29T05:11:58.596Z,77.81
2022-12-29T05:14:47.981Z,77.65
2022-12-29T05:17:39.441Z,77.47
2022-12-29T05:20:30.190Z,76.48
2022-12-29T05:23:20.286Z,76.17
2022-12-29T05:26:15.744Z,76.45
2022-12-29T05:29:19.097Z,76.60
2022-12-29T05:32:08.462Z,76.56
2022-12-29T05:34:59.572Z,76.90
2022-12-29T05:37:49.050Z,76.61
2022-12-29T05:40:38.376Z,76.24
2022-12-29T05:43:35.839Z,75.66
2022-12-29T05:46:51.675Z,75.71
2022-12-29T05:49:55.849Z,74.42
2022-12-29T05:53:04.963Z,75.18
2022-12-29T05:55:55.017Z,76.52
2022-12-29T05:58:44.348Z,76.89
2022-12-29T06:01:35.359Z,77.42
2022-12-29T06:04:25.351Z,77.12
2022-12-29T06:07:15.005Z,77.13
2022-12-29T06:10:10.273Z,77.22
2022-12-29T06:13:10.071Z,77.58
2022-12-29T06:16:03.129Z,77.19
2022-12-29T06:18:52.714Z,77.06
2022-12-29T06:21:42.006Z,76.26
2022-12-29T06:24:32.685Z,75.70
2022-12-29T06:27:23.358Z,75.96
2022-12-29T06:30:16.003Z,75.97
2022-12-29T06:33:06.534Z,75.93
2022-12-29T06:35:55.951Z,76.19
2022-12-29T06:38:45.262Z,75.62
2022-12-29T06:41:35.131Z,75.59
2022-12-29T06:45:01.896Z,75.80
2022-12-29T06:47:51.139Z,75.92
2022-12-29T06:50:40.449Z,76.11
2022-12-29T06:53:29.729Z,75.80
2022-12-29T06:56:19.166Z,75.76
2022-12-29T06:59:08.568Z,75.40
2022-12-29T07:01:59.279Z,75.22
2022-12-29T07:04:48.703Z,75.15
2022-12-29T07:07:37.966Z,74.30
2022-12-29T07:10:27.326Z,74.68
2022-12-29T07:13:16.700Z,74.75
2022-12-29T07:16:11.228Z,74.54
2022-12-29T07:19:01.954Z,74.89
2022-12-29T07:21:51.248Z,74.97
2022-12-29T07:24:40.538Z,74.18
2022-12-29T07:27:29.746Z,74.22
2022-12-29T07:30:19.205Z,74.79
2022-12-29T07:33:08.448Z,75.31
2022-12-29T07:35:59.530Z,75.76
2022-12-29T07:38:48.834Z,76.25
2022-12-29T07:41:38.201Z,76.97
2022-12-29T07:44:27.463Z,76.29
2022-12-29T07:47:37.285Z,76.07
2022-12-29T07:50:26.531Z,75.76
2022-12-29T07:53:17.391Z,75.49
2022-12-29T07:56:07.752Z,75.20
2022-12-29T07:58:57.491Z,75.57
2022-12-29T08:01:46.900Z,75.30
2022-12-29T08:04:36.273Z,75.44
2022-12-29T08:07:25.614Z,74.60
2022-12-29T08:10:17.743Z,74.53
2022-12-29T08:13:07.048Z,74.91
2022-12-29T08:15:56.334Z,74.88
2022-12-29T08:18:45.632Z,75.01
2022-12-29T08:21:34.930Z,74.92
2022-12-29T08:24:24.450Z,74.73
2022-12-29T08:27:20.305Z,74.76
2022-12-29T08:30:12.349Z,74.40
2022-12-29T08:33:01.634Z,75.14
2022-12-29T08:35:50.877Z,74.51
2022-12-29T08:38:40.176Z,74.76
2022-12-29T08:41:29.482Z,74.86
2022-12-29T08:44:20.187Z,74.49
2022-12-29T08:47:09.578Z,74.77
2022-12-29T08:49:58.854Z,74.80
2022-12-29T08:52:48.258Z,75.03
2022-12-29T08:55:37.585Z,74.91
2022-12-29T08:58:27.537Z,74.64
2022-12-29T09:01:19.001Z,74.70
2022-12-29T09:04:17.350Z,75.36
2022-12-29T09:07:07.735Z,74.82
2022-12-29T09:09:56.960Z,75.29
2022-12-29T09:12:46.238Z,75.61
2022-12-29T09:15:35.517Z,76.35
2022-12-29T09:18:26.218Z,75.89
2022-12-29T09:21:15.644Z,76.70
2022-12-29T09:24:05.224Z,76.36
2022-12-29T09:26:54.452Z,76.43
2022-12-29T09:29:43.799Z,75.91
2022-12-29T09:32:34.320Z,76.03
2022-12-29T09:35:25.955Z,75.87
2022-12-29T09:38:16.937Z,75.95
2022-12-29T09:41:16.281Z,75.81
2022-12-29T09:44:18.664Z,75.81
2022-12-29T09:47:13.777Z,75.67
2022-12-29T09:50:08.868Z,75.93
2022-12-29T09:53:07.964Z,76.14
2022-12-29T09:56:02.855Z,75.98
2022-12-29T09:58:57.787Z,76.54
2022-12-29T10:01:59.152Z,75.82
2022-12-29T10:04:48.657Z,76.28
2022-12-29T10:07:47.777Z,76.56
2022-12-29T10:10:45.524Z,76.98
2022-12-29T10:13:49.579Z,76.55
2022-12-29T10:16:51.196Z,76.33
2022-12-29T10:20:02.159Z,76.24
2022-12-29T10:23:28.490Z,76.76
2022-12-29T10:26:22.333Z,76.78
2022-12-29T10:29:19.706Z,77.83
2022-12-29T10:32:16.850Z,78.03
2022-12-29T10:35:14.105Z,79.04
2022-12-29T10:38:15.293Z,78.96
2022-12-29T10:41:14.134Z,78.63
2022-12-29T10:44:04.858Z,78.83
2022-12-29T10:47:01.284Z,78.61
2022-12-29T10:49:51.545Z,79.23
2022-12-29T10:52:41.384Z,79.37
2022-12-29T10:55:35.940Z,80.51
2022-12-29T10:58:27.252Z,80.86
2022-12-29T11:01:19.183Z,81.55
2022-12-29T11:04:30.560Z,82.81
2022-12-29T11:07:26.899Z,83.02
2022-12-29T11:10:30.699Z,83.32
2022-12-29T11:13:26.637Z,83.08
2022-12-29T11:16:28.896Z,83.49
2022-12-29T11:19:24.198Z,83.69
2022-12-29T11:22:24.566Z,83.09
2022-12-29T11:25:15.575Z,82.29
2022-12-29T11:28:18.407Z,82.06
2022-12-29T11:31:10.165Z,81.95
2022-12-29T11:34:00.815Z,81.39
2022-12-29T11:36:51.535Z,81.63
2022-12-29T11:39:48.684Z,81.62
2022-12-29T11:42:41.412Z,81.85
2022-12-29T11:45:35.406Z,81.34
2022-12-29T11:48:25.236Z,81.13
2022-12-29T11:51:25.685Z,80.84
2022-12-29T11:54:21.861Z,80.86
2022-12-29T11:57:14.815Z,80.86
2022-12-29T12:00:16.769Z,79.98
2022-12-29T12:03:14.556Z,77.83
2022-12-29T12:06:05.595Z,75.52
2022-12-29T12:08:59.944Z,71.82
2022-12-29T12:11:54.914Z,70.03
2022-12-29T12:14:55.461Z,68.84
2022-12-29T12:18:05.641Z,67.55
2022-12-29T12:20:59.298Z,67.62
2022-12-29T12:24:28.996Z,68.03
2022-12-29T12:27:25.208Z,68.76
2022-12-29T12:30:19.676Z,70.08
2022-12-29T12:33:20.991Z,70.92
2022-12-29T12:36:32.599Z,72.14
2022-12-29T12:39:34.596Z,72.23
2022-12-29T12:42:41.786Z,73.10
2022-12-29T12:45:48.178Z,73.58
2022-12-29T12:49:03.383Z,73.90
2022-12-29T12:52:06.212Z,74.04
2022-12-29T12:55:19.026Z,73.65
2022-12-29T12:58:20.321Z,74.11
2022-12-29T13:01:29.943Z,73.82
2022-12-29T13:04:50.690Z,73.91
2022-12-29T13:07:54.211Z,73.97
2022-12-29T13:10:53.744Z,73.90
2022-12-29T13:14:22.866Z,73.90
2022-12-29T13:17:21.656Z,74.21
2022-12-29T13:20:25.351Z,74.27
2022-12-29T13:23:24.157Z,73.80
2022-12-29T13:26:22.579Z,73.46
2022-12-29T13:29:19.697Z,73.53
2022-12-29T13:32:28.374Z,73.40
2022-12-29T13:35:44.342Z,72.92
2022-12-29T13:38:40.023Z,72.15
2022-12-29T13:41:36.130Z,71.13
2022-12-29T13:44:33.233Z,70.80
2022-12-29T13:47:33.324Z,69.22
2022-12-29T13:50:27.034Z,68.29
2022-12-29T13:53:31.490Z,67.56
2022-12-29T13:56:26.377Z,67.88
2022-12-29T13:59:31.297Z,67.09
2022-12-29T14:02:33.175Z,67.52
2022-12-29T14:05:33.896Z,67.82
2022-12-29T14:08:24.899Z,68.05
2022-12-29T14:11:16.834Z,67.75
2022-12-29T14:14:17.000Z,68.04
2022-12-29T14:17:15.572Z,67.89
2022-12-29T14:20:08.696Z,68.20
2022-12-29T14:23:01.693Z,68.82
2022-12-29T14:26:01.849Z,69.02
2022-12-29T14:28:51.655Z,69.24
2022-12-29T14:31:42.932Z,69.52
2022-12-29T14:34:42.021Z,69.36
2022-12-29T14:37:33.427Z,69.35
2022-12-29T14:40:28.307Z,69.31
2022-12-29T14:43:28.183Z,68.93
2022-12-29T14:46:17.994Z,68.86
2022-12-29T14:49:07.273Z,68.73
2022-12-29T14:52:09.714Z,68.19
2022-12-29T14:55:02.242Z,68.54
2022-12-29T14:57:54.735Z,67.85
2022-12-29T15:00:45.286Z,68.18
2022-12-29T15:03:46.159Z,68.11
2022-12-29T15:06:42.829Z,68.90
2022-12-29T15:09:39.778Z,69.41
2022-12-29T15:12:38.112Z,70.35
2022-12-29T15:15:31.010Z,70.72
2022-12-29T15:18:27.818Z,70.96
2022-12-29T15:21:18.836Z,70.93
2022-12-29T15:24:13.482Z,71.51
2022-12-29T15:27:06.943Z,71.51
2022-12-29T15:30:02.820Z,71.77
2022-12-29T15:32:53.808Z,72.52
2022-12-29T15:35:43.132Z,72.58
2022-12-29T15:38:40.029Z,72.87
2022-12-29T15:41:58.186Z,72.76
2022-12-29T15:44:54.192Z,73.49
2022-12-29T15:47:50.367Z,73.83
2022-12-29T15:50:40.594Z,73.74
2022-12-29T15:53:33.307Z,74.01
2022-12-29T15:56:22.828Z,74.26
2022-12-29T15:59:27.829Z,73.85
2022-12-29T16:02:19.009Z,74.33
2022-12-29T16:05:18.933Z,73.81
2022-12-29T16:08:34.864Z,73.73
2022-12-29T16:11:28.867Z,74.19
2022-12-29T16:14:21.907Z,74.10
2022-12-29T16:17:20.507Z,74.29
2022-12-29T16:20:21.469Z,74.39
2022-12-29T16:23:22.481Z,74.29
2022-12-29T16:26:18.957Z,74.47
2022-12-29T16:29:09.910Z,74.73
2022-12-29T16:32:04.057Z,75.25
2022-12-29T16:35:04.692Z,75.32
2022-12-29T16:38:15.668Z,75.31
2022-12-29T16:41:05.731Z,75.81
2022-12-29T16:44:15.488Z,76.03
2022-12-29T16:47:22.997Z,77.68
2022-12-29T16:50:28.167Z,78.36
2022-12-29T16:53:26.227Z,78.65
2022-12-29T16:56:19.725Z,78.85
2022-12-29T16:59:20.004Z,78.76
2022-12-29T17:02:16.786Z,78.60
2022-12-29T17:05:06.533Z,78.48
2022-12-29T17:08:02.035Z,78.85
2022-12-29T17:11:10.190Z,78.60
2022-12-29T17:13:59.562Z,78.85
2022-12-29T17:16:49.831Z,78.85
2022-12-29T17:19:40.670Z,79.21
2022-12-29T17:22:31.012Z,78.50
2022-12-29T17:25:25.394Z,78.69
2022-12-29T17:28:22.606Z,78.80
2022-12-29T17:31:13.107Z,78.59
2022-12-29T17:34:02.455Z,78.50
2022-12-29T17:36:51.762Z,78.42
2022-12-29T17:39:40.997Z,78.34
2022-12-29T17:42:33.090Z,78.40
2022-12-29T17:45:25.238Z,78.68
2022-12-29T17:48:16.542Z,78.67
2022-12-29T17:51:06.658Z,78.89
2022-12-29T17:53:56.870Z,78.75
2022-12-29T17:56:46.285Z,78.81
2022-12-29T17:59:36.961Z,78.66
2022-12-29T18:02:30.757Z,78.65
2022-12-29T18:05:23.249Z,79.11
2022-12-29T18:08:13.541Z,78.84
2022-12-29T18:11:04.219Z,78.72
2022-12-29T18:13:54.898Z,78.89
2022-12-29T18:16:45.727Z,79.09
2022-12-29T18:19:36.274Z,78.64
2022-12-29T18:22:29.021Z,79.17
2022-12-29T18:25:26.926Z,78.76
2022-12-29T18:28:16.140Z,78.54
2022-12-29T18:31:05.480Z,78.37
2022-12-29T18:33:57.788Z,78.61
2022-12-29T18:36:47.278Z,78.18
2022-12-29T18:39:37.229Z,78.19
2022-12-29T18:42:26.546Z,78.13
2022-12-29T18:45:23.063Z,77.90
2022-12-29T18:48:12.369Z,78.33
2022-12-29T18:51:03.016Z,78.20
2022-12-29T18:53:54.471Z,78.03
2022-12-29T18:56:44.033Z,77.60
2022-12-29T18:59:33.375Z,77.56
2022-12-29T19:02:22.656Z,77.47
2022-12-29T19:05:23.993Z,77.03
2022-12-29T19:08:15.088Z,77.35
2022-12-29T19:11:04.457Z,76.82
2022-12-29T19:13:53.759Z,76.83
2022-12-29T19:16:43.041Z,76.50
2022-12-29T19:19:32.412Z,76.36
2022-12-29T19:22:21.686Z,76.64
2022-12-29T19:25:12.450Z,76.48
2022-12-29T19:28:02.013Z,75.88
2022-12-29T19:30:53.088Z,76.05
2022-12-29T19:33:42.442Z,75.81
2022-12-29T19:36:31.970Z,75.64
2022-12-29T19:39:21.187Z,74.88
2022-12-29T19:42:11.791Z,75.08
2022-12-29T19:45:02.368Z,74.74
2022-12-29T19:47:51.725Z,74.59
2022-12-29T19:50:43.018Z,74.08
2022-12-29T19:53:32.265Z,73.99
2022-12-29T19:56:21.811Z,72.81
2022-12-29T19:59:13.361Z,73.65
2022-12-29T20:02:02.827Z,73.76
2022-12-29T20:04:52.844Z,73.64
2022-12-29T20:07:42.122Z,73.69
2022-12-29T20:10:31.368Z,73.53
2022-12-29T20:13:20.723Z,73.78
2022-12-29T20:16:14.946Z,72.24
2022-12-29T20:19:04.840Z,73.21
2022-12-29T20:21:54.162Z,72.92
2022-12-29T20:24:49.727Z,72.40
2022-12-29T20:27:39.441Z,72.68
2022-12-29T20:30:29.938Z,71.64
2022-12-29T20:33:20.584Z,71.32
2022-12-29T20:36:12.495Z,70.53
2022-12-29T20:39:06.013Z,70.85
2022-12-29T20:41:55.399Z,69.94
2022-12-29T20:44:44.948Z,69.59
2022-12-29T20:47:34.180Z,69.79
2022-12-29T20:50:24.831Z,68.69
2022-12-29T20:53:14.111Z,68.58
2022-12-29T20:56:07.385Z,67.83
2022-12-29T20:59:26.314Z,68.39
2022-12-29T21:02:07.153Z,68.47
2022-12-29T21:05:22.873Z,68.18
2022-12-29T21:08:07.839Z,67.99
2022-12-29T21:10:58.774Z,67.44
2022-12-29T21:13:48.494Z,67.93
2022-12-29T21:16:38.370Z,67.95
2022-12-29T21:19:27.725Z,67.85
2022-12-29T21:22:17.153Z,68.82
2022-12-29T21:25:08.789Z,68.67
2022-12-29T21:27:58.262Z,68.94
2022-12-29T21:30:49.134Z,69.35
2022-12-29T21:33:39.099Z,69.16
2022-12-29T21:36:29.438Z,70.32
2022-12-29T21:39:18.696Z,70.25
2022-12-29T21:42:09.675Z,71.25
2022-12-29T21:45:20.417Z,72.16
2022-12-29T21:48:24.084Z,72.45
2022-12-29T21:51:33.127Z,73.67
2022-12-29T21:54:42.981Z,73.15
2022-12-29T21:57:51.163Z,74.25
2022-12-29T22:01:06.042Z,75.14
2022-12-29T22:04:12.635Z,75.19
2022-12-29T22:07:20.738Z,76.20
2022-12-29T22:10:27.927Z,76.42
2022-12-29T22:13:18.530Z,77.13
2022-12-29T22:16:10.488Z,77.89
2022-12-29T22:19:00.253Z,79.07
2022-12-29T22:21:49.549Z,79.42
2022-12-29T22:24:39.269Z,80.30
2022-12-29T22:27:28.641Z,81.40
2022-12-29T22:30:20.380Z,81.06
2022-12-29T22:33:10.329Z,82.45
2022-12-29T22:35:59.603Z,82.39
2022-12-29T22:38:49.400Z,83.13
2022-12-29T22:41:38.680Z,82.75
2022-12-29T22:44:27.935Z,83.20
2022-12-29T22:47:18.625Z,84.06
2022-12-29T22:50:08.640Z,84.77
2022-12-29T22:52:57.833Z,84.86
2022-12-29T22:55:47.091Z,84.71
2022-12-29T22:58:36.719Z,84.13
2022-12-29T23:01:26.065Z,83.39
2022-12-29T23:07:26.515Z,81.56
2022-12-29T23:10:15.679Z,80.40
2022-12-29T23:15:55.661Z,79.55
2022-12-29T23:18:45.913Z,79.55
2022-12-29T23:21:36.575Z,79.21
2022-12-29T23:24:27.838Z,79.47
2022-12-29T23:27:17.237Z,79.29
2022-12-29T23:30:08.484Z,80.83
2022-12-29T23:32:57.761Z,81.42
2022-12-29T23:35:46.950Z,81.54
2022-12-29T23:38:37.873Z,80.82
2022-12-29T23:41:28.282Z,81.09
2022-12-29T23:44:17.746Z,81.07
2022-12-29T23:47:07.229Z,81.24
2022-12-29T23:49:56.593Z,81.67
2022-12-29T23:52:45.825Z,81.13
2022-12-29T23:55:36.996Z,81.34
2022-12-29T23:58:26.205Z,81.17
